Pagrindinis puslapis
METAR-TAF:

METAR-TAF

Oro uostai :

Dar es Salamas, Tanzanija

platuma: 06-52S, ilguma: 039-12E, Aukštis: 55 m

Dabartinis oras

Ataskaita buvo paskelbta 52 minutes, ne 20:00 UTC
Vėjas 9 kt iš Šiaurės/Šiaurės Rytų
Temperatūra 27°C
Drėgmė 89%
Slėgis 1011 hPa
Matomumas 10 km arba daugiau
Mažai debesys ne aukštis 1200 ft
Mažai debesys ne aukštis 1500 ft, Liūtiniai kamuoliniai debesys.

METAR: HTDA 152000Z 02009KT 9999 FEW012 FEW015CB 27/25 Q1011 NOSIG

Laikas: 23:52 (20:52 UTC)

Prognozė

Ataskaita buvo paskelbta 3 valandos ir 52 minutes, ne 17:00 UTC
Prognozė galioja nuo 15 metu 18 UTC su 16 metu 24 UTC
Vėjas 10 kt iš Rytų/Šiaurės Rytų
Matomumas 10 km arba daugiau
Išsisklaidę debesys ne aukštis 1700 ft
Tapsmas
nuo 16 metu 02 UTC su 16 metu 05 UTC
Su prošvaistėmis ne aukštis 1900 ft
Mažai debesys ne aukštis 2000 ft, Liūtiniai kamuoliniai debesys.

TAF: HTDA 151700Z 1518/1624 06010KT 9999 SCT017 BECMG 1602/1605 BKN019 FEW020CB

Orai ataskaitas ir orų prognozės (METAR, TAF).

turimą stotys yra geltonos ir raudonos taškus žemėlapyje.

Perkelti pele per norėdami pamatyti stoties vardą.

Tada spustelėkite, norėdami matyti oro stebėjimo ir prognozės.

Norėdami pakeisti žemėlapį: spustelėkite ant žalios mygtukų su juodo kryžiaus žemyn,; žalią mygtuką su brūkšneliu, jei norite nutolinti; arba žalių rodyklių gretimoms žemėlapius.


METAR-TAF: